Time,TemperatureF,DewpointF,PressureIn,WindDirection,WindDirectionDegrees,WindSpeedMPH,WindSpeedGustMPH,Humidity,HourlyPrecipIn,Conditions,Clouds,dailyrainin,SoftwareType,DateUTC
2013-06-23 01:11:00,72.0,65.0,30.12,North,353,4.0,7.0,80,0.00,,,0.00,,2013-06-23 05:11:00,
2013-06-23 01:22:00,72.0,65.0,30.12,North,353,4.0,7.0,80,0.00,,,0.00,,2013-06-23 05:22:00,
2013-06-23 01:32:00,72.0,65.0,30.12,North,353,4.0,7.0,80,0.00,,,0.00,,2013-06-23 05:32:00,
2013-06-23 01:41:00,69.0,65.0,30.14,NNW,348,1.0,2.0,86,0.00,,,0.00,,2013-06-23 05:41:00,
2013-06-23 01:51:00,69.0,65.0,30.14,SSE,159,0.0,2.0,87,0.00,,,0.00,,2013-06-23 05:51:00,
2013-06-23 02:02:00,70.0,66.0,30.14,SSE,155,0.0,1.0,87,0.00,,,0.00,,2013-06-23 06:02:00,
2013-06-23 02:12:00,70.0,66.0,30.14,SSE,155,0.0,1.0,87,0.00,,,0.00,,2013-06-23 06:12:00,
2013-06-23 02:22:00,70.0,66.0,30.14,ENE,75,1.0,4.0,86,0.00,,,0.00,,2013-06-23 06:22:00,
2013-06-23 02:33:00,70.0,66.0,30.14,ENE,75,1.0,4.0,86,0.00,,,0.00,,2013-06-23 06:33:00,
2013-06-23 02:43:00,68.0,64.0,30.13,ENE,65,0.0,1.0,88,0.00,,,0.00,,2013-06-23 06:43:00,
2013-06-23 02:52:00,69.0,66.0,30.12,NW,314,0.0,2.0,89,0.00,,,0.00,,2013-06-23 06:52:00,
2013-06-23 03:02:00,69.0,66.0,30.12,NW,314,0.0,2.0,89,0.00,,,0.00,,2013-06-23 07:02:00,
2013-06-23 03:12:00,68.0,65.0,30.12,NW,314,0.0,0.0,89,0.00,,,0.00,,2013-06-23 07:12:00,
2013-06-23 03:22:00,68.0,65.0,30.12,NW,314,0.0,0.0,89,0.00,,,0.00,,2013-06-23 07:22:00,
2013-06-23 03:34:00,67.0,64.0,30.12,SW,224,0.0,0.0,90,0.00,,,0.00,,2013-06-23 07:34:00,
2013-06-23 03:43:00,67.0,64.0,30.12,SW,221,0.0,0.0,91,0.00,,,0.00,,2013-06-23 07:43:00,
2013-06-23 03:53:00,66.0,64.0,30.11,SSW,200,0.0,2.0,92,0.00,,,0.00,,2013-06-23 07:53:00,
2013-06-23 04:02:00,66.0,64.0,30.11,SSW,200,0.0,2.0,92,0.00,,,0.00,,2013-06-23 08:02:00,
2013-06-23 04:12:00,66.0,64.0,30.11,SSW,200,1.0,2.0,92,0.00,,,0.00,,2013-06-23 08:12:00,
2013-06-23 04:22:00,65.0,63.0,30.11,SSW,196,0.0,1.0,94,0.00,,,0.00,,2013-06-23 08:22:00,
2013-06-23 04:34:00,65.0,63.0,30.11,SSW,196,0.0,1.0,94,0.00,,,0.00,,2013-06-23 08:34:00,
2013-06-23 04:43:00,65.0,63.0,30.11,SSW,195,0.0,0.0,94,0.00,,,0.00,,2013-06-23 08:43:00,
2013-06-23 04:53:00,65.0,64.0,30.11,SSW,195,0.0,0.0,95,0.00,,,0.00,,2013-06-23 08:53:00,
2013-06-23 05:02:00,65.0,64.0,30.11,SSW,195,0.0,0.0,95,0.00,,,0.00,,2013-06-23 09:02:00,
2013-06-23 05:12:00,65.0,63.0,30.12,SSW,195,0.0,0.0,94,0.00,,,0.00,,2013-06-23 09:12:00,
2013-06-23 05:22:00,65.0,64.0,30.11,SSW,195,0.0,0.0,95,0.00,,,0.00,,2013-06-23 09:22:00,
2013-06-23 05:34:00,65.0,64.0,30.11,SSW,195,0.0,0.0,95,0.00,,,0.00,,2013-06-23 09:34:00,
2013-06-23 05:43:00,64.0,63.0,30.12,SSW,197,0.0,1.0,95,0.00,,,0.00,,2013-06-23 09:43:00,
2013-06-23 05:53:00,66.0,65.0,30.12,NNW,338,0.0,0.0,96,0.00,,,0.00,,2013-06-23 09:53:00,
2013-06-23 06:02:00,66.0,65.0,30.12,NNW,338,0.0,0.0,96,0.00,,,0.00,,2013-06-23 10:02:00,
2013-06-23 06:12:00,66.0,65.0,30.12,NNW,347,0.0,0.0,95,0.00,,,0.00,,2013-06-23 10:12:00,
2013-06-23 06:22:00,65.0,63.0,30.13,South,186,0.0,0.0,94,0.00,,,0.00,,2013-06-23 10:22:00,
2013-06-23 06:34:00,65.0,63.0,30.13,South,186,0.0,0.0,94,0.00,,,0.00,,2013-06-23 10:34:00,
2013-06-23 06:43:00,67.0,65.0,30.13,SSW,194,0.0,0.0,94,0.00,,,0.00,,2013-06-23 10:43:00,
2013-06-23 06:53:00,69.0,67.0,30.12,SSW,194,0.0,0.0,92,0.00,,,0.00,,2013-06-23 10:53:00,
2013-06-23 07:02:00,69.0,67.0,30.12,SSW,194,0.0,0.0,92,0.00,,,0.00,,2013-06-23 11:02:00,
2013-06-23 07:11:00,71.0,67.0,30.13,SSW,194,0.0,0.0,87,0.00,,,0.00,,2013-06-23 11:11:00,
2013-06-23 07:22:00,71.0,67.0,30.14,ENE,63,0.0,3.0,86,0.00,,,0.00,,2013-06-23 11:22:00,
2013-06-23 07:33:00,71.0,67.0,30.14,ENE,63,0.0,3.0,86,0.00,,,0.00,,2013-06-23 11:33:00,
2013-06-23 07:43:00,73.0,68.0,30.14,SE,131,0.0,1.0,85,0.00,,,0.00,,2013-06-23 11:43:00,
2013-06-23 07:53:00,73.0,68.0,30.14,SE,131,0.0,1.0,85,0.00,,,0.00,,2013-06-23 11:53:00,
2013-06-23 08:01:00,72.0,67.0,30.14,ENE,72,0.0,3.0,83,0.00,,,0.00,,2013-06-23 12:01:00,
2013-06-23 08:12:00,73.0,68.0,30.14,NNE,20,2.0,4.0,83,0.00,,,0.00,,2013-06-23 12:12:00,
2013-06-23 08:22:00,73.0,68.0,30.14,NNE,20,2.0,4.0,83,0.00,,,0.00,,2013-06-23 12:22:00,
2013-06-23 08:33:00,73.0,68.0,30.14,WNW,291,1.0,3.0,83,0.00,,,0.00,,2013-06-23 12:33:00,
2013-06-23 08:53:00,74.0,68.0,30.14,NNW,339,0.0,4.0,82,0.00,,,0.00,,2013-06-23 12:53:00,
2013-06-23 09:02:00,75.0,69.0,30.14,NE,44,5.0,7.0,81,0.00,,,0.00,,2013-06-23 13:02:00,
2013-06-23 09:24:00,75.0,69.0,30.14,North,4,4.0,6.0,81,0.00,,,0.00,,2013-06-23 13:24:00,
2013-06-23 09:43:00,76.0,69.0,30.14,NW,318,3.0,7.0,79,0.00,,,0.00,,2013-06-23 13:43:00,
2013-06-23 09:53:00,76.0,69.0,30.14,NW,318,3.0,7.0,79,0.00,,,0.00,,2013-06-23 13:53:00,
2013-06-23 10:05:00,77.0,69.0,30.13,NE,41,4.0,6.0,76,0.00,,,0.00,,2013-06-23 14:05:00,
2013-06-23 10:11:00,77.0,69.0,30.13,NE,41,4.0,6.0,76,0.00,,,0.00,,2013-06-23 14:11:00,
2013-06-23 10:22:00,77.0,68.0,30.13,ENE,65,4.0,7.0,75,0.00,,,0.00,,2013-06-23 14:22:00,
2013-06-23 10:34:00,78.0,70.0,30.12,NE,37,4.0,8.0,77,0.00,,,0.00,,2013-06-23 14:34:00,
2013-06-23 10:44:00,79.0,70.0,30.12,North,1,5.0,8.0,75,0.00,,,0.00,,2013-06-23 14:44:00,
2013-06-23 10:52:00,79.0,70.0,30.12,North,1,5.0,8.0,75,0.00,,,0.00,,2013-06-23 14:52:00,
2013-06-23 11:05:00,80.0,70.0,30.11,NE,40,5.0,10.0,72,0.00,,,0.00,,2013-06-23 15:05:00,
2013-06-23 11:12:00,80.0,70.0,30.11,NE,40,6.0,10.0,71,0.00,,,0.00,,2013-06-23 15:12:00,
2013-06-23 11:23:00,80.0,70.0,30.11,NE,40,6.0,10.0,71,0.00,,,0.00,,2013-06-23 15:23:00,
2013-06-23 11:35:00,81.0,70.0,30.11,NNE,19,7.0,12.0,70,0.00,,,0.00,,2013-06-23 15:35:00,
2013-06-23 11:43:00,81.0,70.0,30.11,NE,39,6.0,13.0,69,0.00,,,0.00,,2013-06-23 15:43:00,
2013-06-23 11:52:00,81.0,70.0,30.11,NE,39,6.0,13.0,69,0.00,,,0.00,,2013-06-23 15:52:00,
2013-06-23 12:06:00,82.0,70.0,30.11,NNE,23,7.0,13.0,67,0.00,,,0.00,,2013-06-23 16:06:00,
2013-06-23 12:12:00,82.0,69.0,30.10,East,79,7.0,14.0,64,0.00,,,0.00,,2013-06-23 16:12:00,
2013-06-23 12:22:00,82.0,69.0,30.10,East,79,7.0,14.0,64,0.00,,,0.00,,2013-06-23 16:22:00,
2013-06-23 12:36:00,83.0,68.0,30.10,NW,320,7.0,13.0,61,0.00,,,0.00,,2013-06-23 16:36:00,
2013-06-23 12:43:00,84.0,70.0,30.09,North,359,7.0,16.0,63,0.00,,,0.00,,2013-06-23 16:43:00,
2013-06-23 12:53:00,84.0,70.0,30.09,North,359,7.0,16.0,63,0.00,,,0.00,,2013-06-23 16:53:00,
2013-06-23 13:06:00,84.0,70.0,30.09,NW,323,6.0,17.0,64,0.00,,,0.00,,2013-06-23 17:06:00,
2013-06-23 13:12:00,84.0,70.0,30.09,NE,34,7.0,12.0,62,0.00,,,0.00,,2013-06-23 17:12:00,
2013-06-23 13:22:00,84.0,70.0,30.09,NE,34,7.0,12.0,62,0.00,,,0.00,,2013-06-23 17:22:00,
2013-06-23 13:33:00,83.0,70.0,30.08,NNE,28,9.0,13.0,65,0.00,,,0.00,,2013-06-23 17:33:00,
2013-06-23 13:43:00,82.0,70.0,30.08,North,356,6.0,12.0,67,0.00,,,0.00,,2013-06-23 17:43:00,
2013-06-23 13:53:00,82.0,70.0,30.08,North,356,6.0,12.0,67,0.00,,,0.00,,2013-06-23 17:53:00,
2013-06-23 14:01:00,82.0,70.0,30.07,ENE,67,7.0,11.0,67,0.00,,,0.00,,2013-06-23 18:01:00,
2013-06-23 14:22:00,82.0,70.0,30.07,NW,317,6.0,10.0,67,0.00,,,0.00,,2013-06-23 18:22:00,
2013-06-23 14:34:00,82.0,69.0,30.06,NNE,27,7.0,14.0,65,0.00,,,0.00,,2013-06-23 18:34:00,
2013-06-23 14:43:00,83.0,70.0,30.06,North,4,10.0,14.0,66,0.00,,,0.00,,2013-06-23 18:43:00,
2013-06-23 14:53:00,83.0,70.0,30.06,North,4,10.0,14.0,66,0.00,,,0.00,,2013-06-23 18:53:00,
2013-06-23 15:01:00,82.0,69.0,30.05,ENE,68,8.0,11.0,64,0.00,,,0.00,,2013-06-23 19:01:00,
2013-06-23 15:11:00,82.0,69.0,30.05,ENE,68,8.0,11.0,64,0.00,,,0.00,,2013-06-23 19:11:00,
2013-06-23 15:22:00,82.0,69.0,30.05,NE,39,5.0,9.0,65,0.00,,,0.00,,2013-06-23 19:22:00,
2013-06-23 15:32:00,82.0,70.0,30.04,NNW,338,5.0,8.0,67,0.00,,,0.00,,2013-06-23 19:32:00,
2013-06-23 15:43:00,81.0,70.0,30.04,NE,56,3.0,6.0,69,0.00,,,0.00,,2013-06-23 19:43:00,
2013-06-23 15:53:00,81.0,70.0,30.04,NE,56,3.0,6.0,69,0.00,,,0.00,,2013-06-23 19:53:00,
2013-06-23 16:02:00,82.0,72.0,30.03,East,84,1.0,5.0,71,0.00,,,0.00,,2013-06-23 20:02:00,
2013-06-23 16:12:00,82.0,71.0,30.03,NNE,25,5.0,7.0,69,0.00,,,0.00,,2013-06-23 20:12:00,
2013-06-23 16:24:00,82.0,71.0,30.03,NNE,25,5.0,7.0,69,0.00,,,0.00,,2013-06-23 20:24:00,
2013-06-23 16:34:00,80.0,71.0,30.03,WNW,295,4.0,11.0,74,0.00,,,0.00,,2013-06-23 20:34:00,
2013-06-23 16:42:00,80.0,71.0,30.03,WNW,301,2.0,5.0,74,0.00,,,0.00,,2013-06-23 20:42:00,
2013-06-23 16:53:00,80.0,71.0,30.03,WNW,301,2.0,5.0,74,0.00,,,0.00,,2013-06-23 20:53:00,
2013-06-23 17:01:00,80.0,72.0,30.02,West,273,0.0,6.0,76,0.00,,,0.00,,2013-06-23 21:01:00,
2013-06-23 17:12:00,80.0,72.0,30.02,NE,40,9.0,13.0,76,0.00,,,0.00,,2013-06-23 21:12:00,
2013-06-23 17:22:00,80.0,72.0,30.02,NE,40,9.0,13.0,76,0.00,,,0.00,,2013-06-23 21:22:00,
2013-06-23 17:34:00,77.0,71.0,30.02,NE,45,2.0,7.0,82,0.01,,,0.01,,2013-06-23 21:34:00,
2013-06-23 17:44:00,77.0,72.0,30.01,East,96,2.0,5.0,84,0.01,,,0.01,,2013-06-23 21:44:00,
2013-06-23 17:52:00,77.0,72.0,30.01,East,96,2.0,5.0,84,0.01,,,0.01,,2013-06-23 21:52:00,
2013-06-23 18:01:00,78.0,72.0,30.01,ESE,110,0.0,1.0,82,0.01,,,0.01,,2013-06-23 22:01:00,
2013-06-23 18:12:00,78.0,72.0,30.01,ESE,110,0.0,1.0,82,0.01,,,0.01,,2013-06-23 22:12:00,
2013-06-23 18:22:00,80.0,73.0,30.01,SW,221,1.0,2.0,79,0.01,,,0.01,,2013-06-23 22:22:00,
2013-06-23 18:32:00,80.0,71.0,30.00,NNE,33,0.0,2.0,75,0.00,,,0.01,,2013-06-23 22:32:00,
2013-06-23 18:43:00,80.0,73.0,30.00,NW,312,1.0,4.0,79,0.00,,,0.01,,2013-06-23 22:43:00,
2013-06-23 18:53:00,80.0,73.0,30.00,NW,312,1.0,4.0,79,0.00,,,0.01,,2013-06-23 22:53:00,
2013-06-23 19:01:00,80.0,73.0,30.01,NNE,25,5.0,8.0,79,0.00,,,0.01,,2013-06-23 23:01:00,
2013-06-23 19:12:00,79.0,72.0,30.01,NNW,330,5.0,9.0,80,0.00,,,0.01,,2013-06-23 23:12:00,
2013-06-23 19:22:00,79.0,72.0,30.01,NNW,330,5.0,9.0,80,0.00,,,0.01,,2013-06-23 23:22:00,
2013-06-23 19:33:00,78.0,71.0,30.01,NW,326,5.0,8.0,80,0.00,,,0.01,,2013-06-23 23:33:00,
2013-06-23 19:44:00,78.0,72.0,30.01,WNW,296,2.0,6.0,82,0.00,,,0.01,,2013-06-23 23:44:00,
2013-06-23 19:52:00,78.0,72.0,30.01,WNW,296,2.0,6.0,82,0.00,,,0.01,,2013-06-23 23:52:00,
2013-06-23 20:01:00,79.0,73.0,30.00,NNW,333,4.0,7.0,82,0.00,,,0.01,,2013-06-24 00:01:00,
2013-06-23 20:11:00,78.0,72.0,30.01,NE,34,6.0,8.0,82,0.00,,,0.01,,2013-06-24 00:11:00,
2013-06-23 20:22:00,78.0,72.0,30.01,NE,34,6.0,8.0,82,0.00,,,0.01,,2013-06-24 00:22:00,
2013-06-23 20:33:00,78.0,73.0,30.01,NNE,25,5.0,8.0,84,0.00,,,0.01,,2013-06-24 00:33:00,
2013-06-23 20:42:00,77.0,72.0,30.02,NNW,344,4.0,6.0,85,0.00,,,0.01,,2013-06-24 00:42:00,
2013-06-23 20:52:00,77.0,72.0,30.02,NNW,344,4.0,6.0,85,0.00,,,0.01,,2013-06-24 00:52:00,
2013-06-23 21:02:00,76.0,71.0,30.02,NNE,20,5.0,10.0,85,0.00,,,0.01,,2013-06-24 01:02:00,
2013-06-23 21:11:00,76.0,71.0,30.02,North,356,5.0,9.0,85,0.00,,,0.01,,2013-06-24 01:11:00,
2013-06-23 21:22:00,76.0,71.0,30.02,North,356,5.0,9.0,85,0.00,,,0.01,,2013-06-24 01:22:00,
2013-06-23 21:32:00,76.0,72.0,30.03,NW,322,3.0,7.0,86,0.00,,,0.01,,2013-06-24 01:32:00,
2013-06-23 21:42:00,76.0,72.0,30.03,NW,312,2.0,5.0,87,0.00,,,0.01,,2013-06-24 01:42:00,
2013-06-23 21:53:00,76.0,72.0,30.03,NW,312,2.0,5.0,87,0.00,,,0.01,,2013-06-24 01:53:00,
2013-06-23 22:02:00,75.0,71.0,30.03,North,354,3.0,5.0,88,0.00,,,0.01,,2013-06-24 02:02:00,
2013-06-23 22:11:00,75.0,71.0,30.04,NNW,345,5.0,7.0,88,0.00,,,0.01,,2013-06-24 02:11:00,
2013-06-23 22:22:00,75.0,71.0,30.04,NNW,345,5.0,7.0,88,0.00,,,0.01,,2013-06-24 02:22:00,
2013-06-23 22:33:00,75.0,72.0,30.04,NW,321,3.0,7.0,89,0.00,,,0.01,,2013-06-24 02:33:00,
2013-06-23 22:42:00,75.0,72.0,30.04,NNW,339,1.0,5.0,90,0.00,,,0.01,,2013-06-24 02:42:00,
2013-06-23 22:53:00,75.0,72.0,30.04,NNW,339,1.0,5.0,90,0.00,,,0.01,,2013-06-24 02:53:00,
2013-06-23 23:01:00,75.0,72.0,30.05,NNE,28,2.0,4.0,90,0.00,,,0.01,,2013-06-24 03:01:00,
2013-06-23 23:11:00,75.0,72.0,30.04,NW,323,0.0,3.0,90,0.00,,,0.01,,2013-06-24 03:11:00,
2013-06-23 23:22:00,75.0,72.0,30.04,NW,323,0.0,3.0,90,0.00,,,0.01,,2013-06-24 03:22:00,
2013-06-23 23:33:00,75.0,72.0,30.04,NE,49,1.0,3.0,91,0.00,,,0.01,,2013-06-24 03:33:00,
2013-06-23 23:43:00,75.0,72.0,30.04,NE,54,1.0,5.0,91,0.00,,,0.01,,2013-06-24 03:43:00,
2013-06-23 23:53:00,75.0,72.0,30.04,NE,54,1.0,5.0,91,0.00,,,0.01,,2013-06-24 03:53:00,